Time,TemperatureF,DewpointF,PressureIn,WindDirection,WindDirectionDegrees,WindSpeedMPH,WindSpeedGustMPH,Humidity,HourlyPrecipIn,Conditions,Clouds,dailyrainin,SoftwareType,DateUTC
2013-02-14 00:00:00,40.9,35.8,29.93,NW,307,2.0,3.0,82,0.00,,BKN250,0.33,VWS V14.01,2013-02-14 05:00:00,
2013-02-14 00:01:00,40.9,35.8,29.93,NW,307,1.0,3.0,82,0.00,,FEW250,0.33,VWS V14.01,2013-02-14 05:01:00,
2013-02-14 00:03:00,40.9,35.8,29.93,West,265,5.0,6.0,82,0.00,,FEW250,0.33,VWS V14.01,2013-02-14 05:03:00,
2013-02-14 00:06:00,41.1,35.7,29.94,West,266,0.0,2.0,81,0.00,,FEW250,0.00,VWS V14.01,2013-02-14 05:06:00,
2013-02-14 00:12:00,40.6,35.5,29.94,West,274,0.0,2.0,82,0.00,,FEW250,0.00,VWS V14.01,2013-02-14 05:12:00,
2013-02-14 00:18:00,40.2,35.5,29.95,WNW,300,1.0,3.0,83,0.00,,FEW250,0.00,VWS V14.01,2013-02-14 05:18:00,
2013-02-14 00:24:00,39.9,35.5,29.95,West,276,0.0,3.0,84,0.00,,FEW250,0.00,VWS V14.01,2013-02-14 05:24:00,
2013-02-14 00:30:00,39.8,35.4,29.95,West,276,0.0,2.0,84,0.00,,FEW250,0.00,VWS V14.01,2013-02-14 05:30:00,
2013-02-14 00:36:00,39.6,35.2,29.95,WNW,289,0.0,2.0,84,0.00,,FEW250,0.00,VWS V14.01,2013-02-14 05:36:00,
2013-02-14 00:42:00,39.3,35.2,29.95,WNW,289,0.0,2.0,85,0.00,,FEW250,0.00,VWS V14.01,2013-02-14 05:42:00,
2013-02-14 00:48:00,39.1,35.0,29.96,WNW,283,0.0,2.0,85,0.00,,FEW250,0.00,VWS V14.01,2013-02-14 05:48:00,
2013-02-14 00:54:00,38.9,34.8,29.96,WNW,283,0.0,2.0,85,0.00,,FEW250,0.00,VWS V14.01,2013-02-14 05:54:00,
2013-02-14 01:00:00,38.6,34.8,29.96,WNW,283,0.0,2.0,86,0.00,,FEW250,0.00,VWS V14.01,2013-02-14 06:00:00,
2013-02-14 01:06:00,38.3,34.5,29.97,West,281,1.0,2.0,86,0.00,,FEW250,0.00,VWS V14.01,2013-02-14 06:06:00,
2013-02-14 01:12:00,38.2,34.7,29.97,West,281,0.0,2.0,87,0.00,,FEW250,0.00,VWS V14.01,2013-02-14 06:12:00,
2013-02-14 01:18:00,38.0,34.5,29.97,West,281,0.0,1.0,87,0.00,,FEW250,0.00,VWS V14.01,2013-02-14 06:18:00,
2013-02-14 01:24:00,37.9,34.4,29.97,West,281,0.0,2.0,87,0.00,,FEW250,0.00,VWS V14.01,2013-02-14 06:24:00,
2013-02-14 01:30:00,37.8,34.3,29.97,West,281,0.0,0.0,87,0.00,,FEW250,0.00,VWS V14.01,2013-02-14 06:30:00,
2013-02-14 01:36:00,37.6,34.1,29.97,West,281,0.0,0.0,87,0.00,,FEW250,0.00,VWS V14.01,2013-02-14 06:36:00,
2013-02-14 01:42:00,37.5,34.0,29.97,West,281,1.0,2.0,87,0.00,,FEW250,0.00,VWS V14.01,2013-02-14 06:42:00,
2013-02-14 01:48:00,37.0,33.5,29.98,WNW,283,0.0,2.0,87,0.00,,FEW250,0.00,VWS V14.01,2013-02-14 06:48:00,
2013-02-14 01:54:00,36.9,33.7,29.98,WNW,283,0.0,2.0,88,0.00,,FEW250,0.00,VWS V14.01,2013-02-14 06:54:00,
2013-02-14 01:59:00,36.9,33.7,29.98,WNW,283,1.0,1.0,88,0.00,,FEW250,0.00,VWS V14.01,2013-02-14 06:59:00,
2013-02-14 02:05:00,36.9,33.7,29.98,WNW,283,0.0,0.0,88,0.00,,FEW250,0.00,VWS V14.01,2013-02-14 07:05:00,
2013-02-14 02:11:00,36.6,33.4,29.98,WNW,283,0.0,1.0,88,0.00,,FEW250,0.00,VWS V14.01,2013-02-14 07:11:00,
2013-02-14 02:17:00,36.3,33.4,29.98,WNW,283,0.0,1.0,89,0.00,,FEW250,0.00,VWS V14.01,2013-02-14 07:17:00,
2013-02-14 02:23:00,36.0,33.1,29.98,WNW,283,0.0,3.0,89,0.00,,FEW250,0.00,VWS V14.01,2013-02-14 07:23:00,
2013-02-14 02:29:00,36.2,33.3,29.98,WNW,283,1.0,3.0,89,0.00,,FEW250,0.00,VWS V14.01,2013-02-14 07:29:00,
2013-02-14 02:35:00,36.3,33.1,29.98,NW,313,0.0,1.0,88,0.00,,FEW250,0.00,VWS V14.01,2013-02-14 07:35:00,
2013-02-14 02:41:00,36.3,33.1,29.98,NW,313,1.0,2.0,88,0.00,,FEW250,0.00,VWS V14.01,2013-02-14 07:41:00,
2013-02-14 02:47:00,36.2,33.0,29.98,WNW,283,0.0,1.0,88,0.00,,FEW250,0.00,VWS V14.01,2013-02-14 07:47:00,
2013-02-14 02:53:00,36.2,33.0,29.99,WNW,284,0.0,3.0,88,0.00,,FEW250,0.00,VWS V14.01,2013-02-14 07:53:00,
2013-02-14 02:59:00,35.9,32.7,29.99,NW,316,1.0,3.0,88,0.00,,FEW250,0.00,VWS V14.01,2013-02-14 07:59:00,
2013-02-14 03:05:00,35.8,32.6,29.99,NW,316,1.0,2.0,88,0.00,,FEW250,0.00,VWS V14.01,2013-02-14 08:05:00,
2013-02-14 03:11:00,35.8,32.6,29.99,WNW,285,0.0,3.0,88,0.00,,FEW250,0.00,VWS V14.01,2013-02-14 08:11:00,
2013-02-14 03:17:00,35.8,32.6,29.99,WNW,285,0.0,2.0,88,0.00,,FEW250,0.00,VWS V14.01,2013-02-14 08:17:00,
2013-02-14 03:23:00,35.8,32.3,30.00,NW,309,0.0,3.0,87,0.00,,FEW250,0.00,VWS V14.01,2013-02-14 08:23:00,
2013-02-14 03:29:00,35.8,32.3,30.00,WNW,293,1.0,3.0,87,0.00,,FEW250,0.00,VWS V14.01,2013-02-14 08:29:00,
2013-02-14 03:35:00,35.8,32.3,30.01,WNW,293,0.0,1.0,87,0.00,,FEW250,0.00,VWS V14.01,2013-02-14 08:35:00,
2013-02-14 03:41:00,35.8,32.0,30.01,WNW,286,0.0,3.0,86,0.00,,FEW250,0.00,VWS V14.01,2013-02-14 08:41:00,
2013-02-14 03:47:00,35.6,31.8,30.01,WNW,286,0.0,0.0,86,0.00,,FEW250,0.00,VWS V14.01,2013-02-14 08:47:00,
2013-02-14 03:53:00,35.5,32.0,30.02,WNW,286,0.0,1.0,87,0.00,,FEW250,0.00,VWS V14.01,2013-02-14 08:53:00,
2013-02-14 03:59:00,35.5,32.0,30.02,WNW,286,0.0,1.0,87,0.00,,FEW250,0.00,VWS V14.01,2013-02-14 08:59:00,
2013-02-14 04:05:00,35.3,31.8,30.02,WNW,286,0.0,0.0,87,0.00,,FEW250,0.00,VWS V14.01,2013-02-14 09:05:00,
2013-02-14 04:11:00,35.0,31.5,30.02,WNW,286,0.0,0.0,87,0.00,,FEW250,0.00,VWS V14.01,2013-02-14 09:11:00,
2013-02-14 04:18:00,34.9,31.7,30.02,WNW,286,0.0,1.0,88,0.00,,FEW250,0.00,VWS V14.01,2013-02-14 09:18:00,
2013-02-14 04:24:00,34.7,31.5,30.03,WNW,286,0.0,1.0,88,0.00,,FEW250,0.00,VWS V14.01,2013-02-14 09:24:00,
2013-02-14 04:30:00,34.7,31.5,30.03,WNW,286,0.0,0.0,88,0.00,,FEW250,0.00,VWS V14.01,2013-02-14 09:30:00,
2013-02-14 04:36:00,34.6,31.4,30.03,WNW,286,0.0,0.0,88,0.00,,FEW250,0.00,VWS V14.01,2013-02-14 09:36:00,
2013-02-14 04:42:00,34.4,31.2,30.03,WNW,286,0.0,0.0,88,0.00,,FEW250,0.00,VWS V14.01,2013-02-14 09:42:00,
2013-02-14 04:48:00,34.3,31.4,30.03,WNW,286,0.0,0.0,89,0.00,,FEW250,0.00,VWS V14.01,2013-02-14 09:48:00,
2013-02-14 04:54:00,33.8,30.9,30.04,WNW,286,0.0,0.0,89,0.00,,FEW250,0.00,VWS V14.01,2013-02-14 09:54:00,
2013-02-14 05:00:00,33.4,30.8,30.04,WNW,286,0.0,0.0,90,0.00,,FEW250,0.00,VWS V14.01,2013-02-14 10:00:00,
2013-02-14 05:06:00,32.8,30.2,30.05,WNW,286,0.0,0.0,90,0.00,,FEW250,0.00,VWS V14.01,2013-02-14 10:06:00,
2013-02-14 05:12:00,32.7,30.4,30.05,WNW,286,0.0,0.0,91,0.00,,FEW250,0.00,VWS V14.01,2013-02-14 10:12:00,
2013-02-14 05:18:00,32.4,30.3,30.05,WNW,286,0.0,0.0,92,0.00,,FEW250,0.00,VWS V14.01,2013-02-14 10:18:00,
2013-02-14 05:24:00,32.4,30.3,30.05,WNW,286,0.0,0.0,92,0.00,,FEW250,0.00,VWS V14.01,2013-02-14 10:24:00,
2013-02-14 05:30:00,32.5,30.7,30.05,WNW,286,0.0,0.0,93,0.00,,FEW250,0.00,VWS V14.01,2013-02-14 10:30:00,
2013-02-14 05:36:00,32.8,31.0,30.06,WNW,286,0.0,0.0,93,0.00,,FEW250,0.00,VWS V14.01,2013-02-14 10:36:00,
2013-02-14 05:42:00,32.9,31.1,30.06,WNW,286,0.0,0.0,93,0.00,,FEW250,0.00,VWS V14.01,2013-02-14 10:42:00,
2013-02-14 05:48:00,32.9,31.1,30.06,WNW,286,0.0,0.0,93,0.00,,FEW250,0.00,VWS V14.01,2013-02-14 10:48:00,
2013-02-14 05:54:00,32.9,31.1,30.06,WNW,286,0.0,0.0,93,0.00,,FEW250,0.00,VWS V14.01,2013-02-14 10:54:00,
2013-02-14 06:00:00,32.8,31.0,30.06,WNW,286,0.0,0.0,93,0.00,,FEW250,0.00,VWS V14.01,2013-02-14 11:00:00,
2013-02-14 06:06:00,32.5,30.7,30.07,WNW,286,0.0,0.0,93,0.00,,FEW250,0.00,VWS V14.01,2013-02-14 11:06:00,
2013-02-14 06:12:00,32.4,30.6,30.07,WNW,286,0.0,0.0,93,0.00,,FEW250,0.00,VWS V14.01,2013-02-14 11:12:00,
2013-02-14 06:18:00,32.2,30.4,30.08,WNW,286,0.0,0.0,93,0.00,,FEW250,0.00,VWS V14.01,2013-02-14 11:18:00,
2013-02-14 06:24:00,31.8,30.0,30.08,WNW,286,0.0,0.0,93,0.00,,FEW250,0.00,VWS V14.01,2013-02-14 11:24:00,
2013-02-14 06:30:00,31.6,30.1,30.08,WNW,286,0.0,0.0,94,0.00,,FEW250,0.00,VWS V14.01,2013-02-14 11:30:00,
2013-02-14 06:36:00,31.5,30.0,30.08,WNW,286,0.0,0.0,94,0.00,,FEW250,0.00,VWS V14.01,2013-02-14 11:36:00,
2013-02-14 06:42:00,31.5,30.0,30.08,WNW,286,0.0,0.0,94,0.00,,FEW250,0.00,VWS V14.01,2013-02-14 11:42:00,
2013-02-14 06:48:00,31.3,29.8,30.09,WNW,286,0.0,0.0,94,0.00,,FEW250,0.00,VWS V14.01,2013-02-14 11:48:00,
2013-02-14 06:54:00,31.2,29.7,30.09,WNW,286,0.0,0.0,94,0.00,,FEW250,0.00,VWS V14.01,2013-02-14 11:54:00,
2013-02-14 07:00:00,31.3,30.0,30.09,WNW,286,0.0,0.0,95,0.00,,FEW250,0.00,VWS V14.01,2013-02-14 12:00:00,
2013-02-14 07:06:00,31.5,30.2,30.10,WNW,286,0.0,0.0,95,0.00,,FEW250,0.00,VWS V14.01,2013-02-14 12:06:00,
2013-02-14 07:12:00,31.6,30.3,30.10,WNW,286,0.0,0.0,95,0.00,,FEW250,0.00,VWS V14.01,2013-02-14 12:12:00,
2013-02-14 07:18:00,31.5,30.2,30.11,WNW,286,0.0,0.0,95,0.00,,FEW250,0.00,VWS V14.01,2013-02-14 12:18:00,
2013-02-14 07:24:00,31.3,30.0,30.11,WNW,286,0.0,0.0,95,0.00,,FEW250,0.00,VWS V14.01,2013-02-14 12:24:00,
2013-02-14 07:29:00,31.3,30.0,30.11,WNW,286,0.0,0.0,95,0.00,,FEW250,0.00,VWS V14.01,2013-02-14 12:29:00,
2013-02-14 07:35:00,31.3,30.0,30.12,WNW,286,0.0,0.0,95,0.00,,FEW250,0.00,VWS V14.01,2013-02-14 12:35:00,
2013-02-14 07:41:00,31.5,30.5,30.12,WNW,286,0.0,0.0,96,0.00,,FEW250,0.00,VWS V14.01,2013-02-14 12:41:00,
2013-02-14 07:47:00,31.8,30.8,30.12,WNW,286,0.0,0.0,96,0.00,,FEW250,0.00,VWS V14.01,2013-02-14 12:47:00,
2013-02-14 07:53:00,32.1,31.1,30.12,WNW,286,0.0,0.0,96,0.00,,FEW250,0.00,VWS V14.01,2013-02-14 12:53:00,
2013-02-14 07:59:00,32.4,31.4,30.12,WNW,286,0.0,0.0,96,0.00,,FEW250,0.00,VWS V14.01,2013-02-14 12:59:00,
2013-02-14 08:05:00,32.8,31.8,30.12,WNW,286,0.0,0.0,96,0.00,,FEW200,0.00,VWS V14.01,2013-02-14 13:05:00,
2013-02-14 08:11:00,33.1,32.1,30.12,WNW,286,0.0,0.0,96,0.00,,FEW200,0.00,VWS V14.01,2013-02-14 13:11:00,
2013-02-14 08:17:00,33.5,32.2,30.12,WNW,286,0.0,0.0,95,0.00,,FEW200,0.00,VWS V14.01,2013-02-14 13:17:00,
2013-02-14 08:23:00,33.8,32.5,30.14,WNW,286,0.0,0.0,95,0.00,,FEW200,0.00,VWS V14.01,2013-02-14 13:23:00,
2013-02-14 08:29:00,34.1,32.8,30.14,WNW,286,0.0,0.0,95,0.00,,FEW200,0.00,VWS V14.01,2013-02-14 13:29:00,
2013-02-14 08:35:00,34.6,33.0,30.15,WNW,286,0.0,0.0,94,0.00,,FEW200,0.00,VWS V14.01,2013-02-14 13:35:00,
2013-02-14 08:41:00,35.3,33.8,30.15,WNW,286,0.0,0.0,94,0.00,,FEW200,0.00,VWS V14.01,2013-02-14 13:41:00,
2013-02-14 08:47:00,36.2,33.8,30.15,WNW,286,1.0,2.0,91,0.00,,FEW200,0.00,VWS V14.01,2013-02-14 13:47:00,
2013-02-14 08:53:00,36.9,34.2,30.17,WNW,286,0.0,2.0,90,0.00,,FEW200,0.00,VWS V14.01,2013-02-14 13:53:00,
2013-02-14 08:59:00,37.6,33.8,30.17,West,281,0.0,2.0,86,0.00,,FEW200,0.00,VWS V14.01,2013-02-14 13:59:00,
2013-02-14 09:05:00,38.3,33.9,30.19,WNW,285,1.0,1.0,84,0.00,,SCT200,0.00,VWS V14.01,2013-02-14 14:05:00,
2013-02-14 09:11:00,38.8,33.2,30.19,WNW,287,0.0,2.0,80,0.00,,SCT200,0.00,VWS V14.01,2013-02-14 14:11:00,
2013-02-14 09:17:00,39.2,32.3,30.19,NW,310,0.0,3.0,76,0.00,,SCT200,0.00,VWS V14.01,2013-02-14 14:17:00,
2013-02-14 09:23:00,39.6,31.7,30.18,NW,322,0.0,5.0,73,0.00,,SCT200,0.00,VWS V14.01,2013-02-14 14:23:00,
2013-02-14 09:29:00,39.8,30.8,30.18,WNW,295,1.0,5.0,70,0.00,,SCT200,0.00,VWS V14.01,2013-02-14 14:29:00,
2013-02-14 09:35:00,40.1,30.8,30.18,WNW,299,4.0,4.0,69,0.00,,SCT200,0.00,VWS V14.01,2013-02-14 14:35:00,
2013-02-14 09:41:00,40.6,32.0,30.18,NW,306,1.0,4.0,71,0.00,,SCT200,0.00,VWS V14.01,2013-02-14 14:41:00,
2013-02-14 09:48:00,41.2,31.1,30.18,WNW,302,3.0,5.0,67,0.00,,SCT200,0.00,VWS V14.01,2013-02-14 14:48:00,
2013-02-14 09:54:00,41.5,32.5,30.17,West,278,0.0,5.0,70,0.00,,SCT200,0.00,VWS V14.01,2013-02-14 14:54:00,
2013-02-14 10:00:00,42.2,32.4,30.17,North,0,0.0,5.0,68,0.00,,SCT200,0.00,VWS V14.01,2013-02-14 15:00:00,
2013-02-14 10:06:00,42.6,32.0,30.17,North,351,1.0,3.0,66,0.00,,SCT200,0.00,VWS V14.01,2013-02-14 15:06:00,
2013-02-14 10:12:00,43.1,32.5,30.17,North,351,0.0,3.0,66,0.00,,SCT200,0.00,VWS V14.01,2013-02-14 15:12:00,
2013-02-14 10:18:00,43.3,31.6,30.17,North,0,2.0,2.0,63,0.00,,SCT200,0.00,VWS V14.01,2013-02-14 15:18:00,
2013-02-14 10:24:00,43.8,31.2,30.16,NE,45,0.0,3.0,61,0.00,,SCT200,0.00,VWS V14.01,2013-02-14 15:24:00,
2013-02-14 10:30:00,43.9,30.5,30.16,NW,307,0.0,5.0,59,0.00,,SCT200,0.00,VWS V14.01,2013-02-14 15:30:00,
2013-02-14 10:36:00,43.8,30.4,30.15,WNW,288,0.0,5.0,59,0.00,,SCT200,0.00,VWS V14.01,2013-02-14 15:36:00,
2013-02-14 10:42:00,43.9,30.9,30.15,WNW,291,1.0,5.0,60,0.00,,SCT200,0.00,VWS V14.01,2013-02-14 15:42:00,
2013-02-14 10:48:00,43.9,30.9,30.15,WNW,291,1.0,2.0,60,0.00,,SCT200,0.00,VWS V14.01,2013-02-14 15:48:00,
2013-02-14 10:54:00,43.9,30.9,30.18,WNW,291,0.0,3.0,60,0.00,,SCT200,0.00,VWS V14.01,2013-02-14 15:54:00,
2013-02-14 11:00:00,44.2,31.6,30.18,WNW,290,1.0,1.0,61,0.00,,SCT200,0.00,VWS V14.01,2013-02-14 16:00:00,
2013-02-14 11:06:00,44.3,30.5,30.17,WNW,296,0.0,4.0,58,0.00,,BKN200,0.00,VWS V14.01,2013-02-14 16:06:00,
2013-02-14 11:12:00,44.5,30.7,30.17,WNW,296,0.0,4.0,58,0.00,,BKN200,0.00,VWS V14.01,2013-02-14 16:12:00,
2013-02-14 11:18:00,44.6,29.9,30.17,North,0,0.0,3.0,56,0.00,,BKN200,0.00,VWS V14.01,2013-02-14 16:18:00,
2013-02-14 11:24:00,44.9,30.2,30.18,NW,309,0.0,3.0,56,0.00,,BKN200,0.00,VWS V14.01,2013-02-14 16:24:00,
2013-02-14 11:30:00,45.2,31.3,30.18,NW,314,1.0,1.0,58,0.00,,BKN200,0.00,VWS V14.01,2013-02-14 16:30:00,
2013-02-14 11:36:00,45.4,30.6,30.17,West,259,1.0,1.0,56,0.00,,BKN200,0.00,VWS V14.01,2013-02-14 16:36:00,
2013-02-14 11:42:00,45.7,31.4,30.17,NNW,328,3.0,4.0,57,0.00,,BKN200,0.00,VWS V14.01,2013-02-14 16:42:00,
2013-02-14 11:48:00,45.5,29.8,30.17,North,0,0.0,4.0,54,0.00,,BKN200,0.00,VWS V14.01,2013-02-14 16:48:00,
2013-02-14 11:54:00,45.7,30.5,30.17,West,279,0.0,4.0,55,0.00,,BKN200,0.00,VWS V14.01,2013-02-14 16:54:00,
2013-02-14 12:00:00,46.1,30.9,30.17,WNW,292,1.0,3.0,55,0.00,,BKN200,0.00,VWS V14.01,2013-02-14 17:00:00,
2013-02-14 12:06:00,46.2,30.5,30.16,SW,228,1.0,3.0,54,0.00,,BKN200,0.00,VWS V14.01,2013-02-14 17:06:00,
2013-02-14 12:12:00,46.4,29.8,30.16,SW,223,0.0,4.0,52,0.00,,BKN200,0.00,VWS V14.01,2013-02-14 17:12:00,
2013-02-14 12:18:00,46.8,31.0,30.16,SSE,148,0.0,4.0,54,0.00,,BKN200,0.00,VWS V14.01,2013-02-14 17:18:00,
2013-02-14 12:24:00,47.4,31.1,30.16,WNW,286,1.0,4.0,53,0.00,,BKN200,0.00,VWS V14.01,2013-02-14 17:24:00,
2013-02-14 12:30:00,47.6,31.8,30.16,SW,217,0.0,5.0,54,0.00,,BKN200,0.00,VWS V14.01,2013-02-14 17:30:00,
2013-02-14 12:36:00,48.0,31.2,30.15,WNW,283,2.0,4.0,52,0.00,,BKN200,0.00,VWS V14.01,2013-02-14 17:36:00,
2013-02-14 12:42:00,48.2,30.5,30.15,SSW,198,5.0,7.0,50,0.00,,BKN200,0.00,VWS V14.01,2013-02-14 17:42:00,
2013-02-14 12:48:00,47.7,31.0,30.15,WSW,245,0.0,4.0,52,0.00,,BKN200,0.00,VWS V14.01,2013-02-14 17:48:00,
2013-02-14 12:54:00,48.0,31.2,30.15,SE,139,0.0,5.0,52,0.00,,BKN200,0.00,VWS V14.01,2013-02-14 17:54:00,
2013-02-14 13:00:00,48.2,31.4,30.15,South,176,1.0,4.0,52,0.00,,BKN200,0.00,VWS V14.01,2013-02-14 18:00:00,
2013-02-14 13:06:00,48.5,31.2,30.15,South,186,0.0,3.0,51,0.00,,BKN200,0.00,VWS V14.01,2013-02-14 18:06:00,
2013-02-14 13:12:00,48.6,32.7,30.15,SSW,208,2.0,5.0,54,0.00,,BKN200,0.00,VWS V14.01,2013-02-14 18:12:00,
2013-02-14 13:18:00,48.8,31.5,30.14,West,278,0.0,5.0,51,0.00,,BKN200,0.00,VWS V14.01,2013-02-14 18:18:00,
2013-02-14 13:24:00,49.1,31.8,30.14,South,181,2.0,5.0,51,0.00,,BKN200,0.00,VWS V14.01,2013-02-14 18:24:00,
2013-02-14 13:30:00,48.9,31.6,30.14,SW,226,1.0,6.0,51,0.00,,BKN200,0.00,VWS V14.01,2013-02-14 18:30:00,
2013-02-14 13:36:00,49.6,31.7,30.13,SW,233,0.0,3.0,50,0.00,,BKN200,0.00,VWS V14.01,2013-02-14 18:36:00,
2013-02-14 13:42:00,50.1,32.7,30.13,West,261,2.0,4.0,51,0.00,,BKN200,0.00,VWS V14.01,2013-02-14 18:42:00,
2013-02-14 13:48:00,49.2,31.4,30.14,SW,222,4.0,7.0,50,0.00,,BKN200,0.00,VWS V14.01,2013-02-14 18:48:00,
2013-02-14 13:54:00,49.2,30.9,30.14,WSW,238,1.0,7.0,49,0.00,,BKN200,0.00,VWS V14.01,2013-02-14 18:54:00,
2013-02-14 13:59:00,49.4,32.0,30.14,WSW,250,4.0,5.0,51,0.00,,BKN200,0.00,VWS V14.01,2013-02-14 18:59:00,
2013-02-14 14:05:00,49.1,31.8,30.13,WNW,282,0.0,0.0,51,0.00,,BKN200,0.00,VWS V14.01,2013-02-14 19:05:00,
2013-02-14 14:11:00,49.6,31.7,30.13,SW,224,3.0,4.0,50,0.00,,BKN200,0.00,VWS V14.01,2013-02-14 19:11:00,
2013-02-14 14:17:00,49.5,31.6,30.13,West,264,4.0,5.0,50,0.00,,BKN200,0.00,VWS V14.01,2013-02-14 19:17:00,
2013-02-14 14:23:00,49.2,30.9,30.13,West,264,2.0,5.0,49,0.00,,BKN200,0.00,VWS V14.01,2013-02-14 19:23:00,
2013-02-14 14:29:00,49.1,31.3,30.13,West,278,0.0,5.0,50,0.00,,BKN200,0.00,VWS V14.01,2013-02-14 19:29:00,
2013-02-14 14:35:00,49.4,31.1,30.12,West,271,2.0,2.0,49,0.00,,BKN200,0.00,VWS V14.01,2013-02-14 19:35:00,
2013-02-14 14:41:00,49.6,31.7,30.12,SW,236,0.0,5.0,50,0.00,,BKN200,0.00,VWS V14.01,2013-02-14 19:41:00,
2013-02-14 14:47:00,50.4,32.0,30.12,SW,229,5.0,5.0,49,0.00,,BKN200,0.00,VWS V14.01,2013-02-14 19:47:00,
2013-02-14 14:53:00,50.4,30.4,30.12,SW,218,5.0,7.0,46,0.00,,BKN200,0.00,VWS V14.01,2013-02-14 19:53:00,
2013-02-14 14:59:00,50.1,30.1,30.12,WNW,294,3.0,7.0,46,0.00,,BKN200,0.00,VWS V14.01,2013-02-14 19:59:00,
2013-02-14 15:05:00,49.9,30.0,30.12,WNW,297,2.0,7.0,46,0.00,,BKN200,0.00,VWS V14.01,2013-02-14 20:05:00,
2013-02-14 15:11:00,49.8,29.3,30.12,SW,228,2.0,7.0,45,0.00,,BKN200,0.00,VWS V14.01,2013-02-14 20:11:00,
2013-02-14 15:17:00,49.8,30.4,30.12,South,178,0.0,3.0,47,0.00,,BKN200,0.00,VWS V14.01,2013-02-14 20:17:00,
2013-02-14 15:23:00,49.8,28.8,30.12,SW,228,6.0,7.0,44,0.00,,BKN200,0.00,VWS V14.01,2013-02-14 20:23:00,
2013-02-14 15:29:00,49.6,28.6,30.12,West,273,0.0,6.0,44,0.00,,BKN200,0.00,VWS V14.01,2013-02-14 20:29:00,
2013-02-14 15:35:00,49.6,29.1,30.12,WSW,253,1.0,4.0,45,0.00,,BKN200,0.00,VWS V14.01,2013-02-14 20:35:00,
2013-02-14 15:41:00,49.6,29.1,30.12,SW,227,1.0,5.0,45,0.00,,BKN200,0.00,VWS V14.01,2013-02-14 20:41:00,
2013-02-14 15:47:00,49.8,30.4,30.12,WSW,237,1.0,3.0,47,0.00,,BKN200,0.00,VWS V14.01,2013-02-14 20:47:00,
2013-02-14 15:53:00,49.8,29.3,30.12,SW,217,2.0,3.0,45,0.00,,BKN200,0.00,VWS V14.01,2013-02-14 20:53:00,
2013-02-14 15:59:00,49.9,30.5,30.12,WSW,248,0.0,6.0,47,0.00,,BKN200,0.00,VWS V14.01,2013-02-14 20:59:00,
2013-02-14 16:05:00,49.9,30.0,30.12,WSW,248,1.0,1.0,46,0.00,,BKN200,0.00,VWS V14.01,2013-02-14 21:05:00,
2013-02-14 16:11:00,49.9,30.0,30.12,WSW,248,0.0,1.0,46,0.00,,BKN200,0.00,VWS V14.01,2013-02-14 21:11:00,
2013-02-14 16:18:00,49.8,30.9,30.12,SSW,212,0.0,3.0,48,0.00,,BKN200,0.00,VWS V14.01,2013-02-14 21:18:00,
2013-02-14 16:24:00,49.9,30.5,30.12,SSW,212,0.0,3.0,47,0.00,,BKN200,0.00,VWS V14.01,2013-02-14 21:24:00,
2013-02-14 16:30:00,49.8,30.4,30.12,WSW,250,1.0,4.0,47,0.00,,BKN200,0.00,VWS V14.01,2013-02-14 21:30:00,
2013-02-14 16:36:00,49.5,29.6,30.13,SW,233,0.0,3.0,46,0.00,,BKN200,0.00,VWS V14.01,2013-02-14 21:36:00,
2013-02-14 16:42:00,49.5,30.1,30.13,WSW,251,0.0,3.0,47,0.00,,BKN200,0.00,VWS V14.01,2013-02-14 21:42:00,
2013-02-14 16:48:00,49.2,29.9,30.13,WSW,258,0.0,4.0,47,0.00,,BKN200,0.00,VWS V14.01,2013-02-14 21:48:00,
2013-02-14 16:54:00,49.1,30.3,30.13,West,269,0.0,4.0,48,0.00,,BKN200,0.00,VWS V14.01,2013-02-14 21:54:00,
2013-02-14 17:00:00,48.9,30.1,30.13,WSW,248,0.0,3.0,48,0.00,,BKN200,0.00,VWS V14.01,2013-02-14 22:00:00,
2013-02-14 17:06:00,48.8,30.5,30.12,SW,221,1.0,1.0,49,0.00,,BKN200,0.00,VWS V14.01,2013-02-14 22:06:00,
2013-02-14 17:12:00,48.6,30.3,30.12,SW,220,0.0,1.0,49,0.00,,BKN200,0.00,VWS V14.01,2013-02-14 22:12:00,
2013-02-14 17:18:00,48.5,30.7,30.12,SW,221,0.0,0.0,50,0.00,,BKN200,0.00,VWS V14.01,2013-02-14 22:18:00,
2013-02-14 17:24:00,48.2,31.9,30.13,SW,221,0.0,0.0,53,0.00,,BKN200,0.00,VWS V14.01,2013-02-14 22:24:00,
2013-02-14 17:30:00,48.0,32.6,30.13,SW,220,0.0,0.0,55,0.00,,BKN200,0.00,VWS V14.01,2013-02-14 22:30:00,
2013-02-14 17:36:00,47.6,33.1,30.12,SW,221,0.0,0.0,57,0.00,,BKN200,0.00,VWS V14.01,2013-02-14 22:36:00,
2013-02-14 17:42:00,47.0,33.4,30.12,SW,221,0.0,0.0,59,0.00,,BKN200,0.00,VWS V14.01,2013-02-14 22:42:00,
2013-02-14 17:48:00,46.5,33.4,30.12,SW,220,0.0,0.0,60,0.00,,BKN200,0.00,VWS V14.01,2013-02-14 22:48:00,
2013-02-14 17:54:00,46.0,33.3,30.13,SW,221,0.0,0.0,61,0.00,,BKN200,0.00,VWS V14.01,2013-02-14 22:54:00,
2013-02-14 18:00:00,45.4,33.6,30.13,SW,221,0.0,0.0,63,0.00,,BKN200,0.00,VWS V14.01,2013-02-14 23:00:00,
2013-02-14 18:06:00,44.8,33.8,30.14,SW,220,0.0,0.0,65,0.00,,BKN200,0.00,VWS V14.01,2013-02-14 23:06:00,
2013-02-14 18:12:00,44.3,33.7,30.14,SW,221,0.0,0.0,66,0.00,,BKN200,0.00,VWS V14.01,2013-02-14 23:12:00,
2013-02-14 18:18:00,43.8,33.9,30.14,SW,221,0.0,0.0,68,0.00,,BKN200,0.00,VWS V14.01,2013-02-14 23:18:00,
2013-02-14 18:24:00,43.2,33.4,30.14,SW,221,0.0,0.0,68,0.00,,BKN200,0.00,VWS V14.01,2013-02-14 23:24:00,
2013-02-14 18:30:00,42.8,33.3,30.14,SW,220,0.0,0.0,69,0.00,,BKN200,0.00,VWS V14.01,2013-02-14 23:30:00,
2013-02-14 18:36:00,42.2,33.5,30.14,SW,221,0.0,0.0,71,0.00,,BKN200,0.00,VWS V14.01,2013-02-14 23:36:00,
2013-02-14 18:42:00,41.9,33.5,30.14,SW,220,0.0,0.0,72,0.00,,BKN200,0.00,VWS V14.01,2013-02-14 23:42:00,
2013-02-14 18:48:00,41.6,33.6,30.14,SW,221,0.0,0.0,73,0.00,,BKN200,0.00,VWS V14.01,2013-02-14 23:48:00,
2013-02-14 18:54:00,41.3,33.7,30.14,SW,221,0.0,0.0,74,0.00,,BKN200,0.00,VWS V14.01,2013-02-14 23:54:00,
2013-02-14 19:00:00,41.1,33.5,30.14,SW,221,0.0,0.0,74,0.00,,BKN200,0.00,VWS V14.01,2013-02-15 00:00:00,
2013-02-14 19:06:00,40.9,33.3,30.15,SW,221,0.0,0.0,74,0.00,,BKN250,0.00,VWS V14.01,2013-02-15 00:06:00,
2013-02-14 19:12:00,40.8,33.2,30.15,SW,221,0.0,0.0,74,0.00,,BKN250,0.00,VWS V14.01,2013-02-15 00:12:00,
2013-02-14 19:18:00,40.6,32.6,30.15,SW,221,0.0,0.0,73,0.00,,BKN250,0.00,VWS V14.01,2013-02-15 00:18:00,
2013-02-14 19:24:00,40.5,32.5,30.15,SW,221,0.0,0.0,73,0.00,,BKN250,0.00,VWS V14.01,2013-02-15 00:24:00,
2013-02-14 19:30:00,40.5,32.5,30.15,SW,221,0.0,0.0,73,0.00,,BKN250,0.00,VWS V14.01,2013-02-15 00:30:00,
2013-02-14 19:36:00,40.3,32.3,30.15,SW,220,0.0,0.0,73,0.00,,BKN250,0.00,VWS V14.01,2013-02-15 00:36:00,
2013-02-14 19:42:00,40.2,32.2,30.15,SW,221,0.0,0.0,73,0.00,,BKN250,0.00,VWS V14.01,2013-02-15 00:42:00,
2013-02-14 19:48:00,40.1,32.5,30.16,SW,221,0.0,0.0,74,0.00,,BKN250,0.00,VWS V14.01,2013-02-15 00:48:00,
2013-02-14 19:54:00,39.9,32.3,30.16,SW,220,0.0,0.0,74,0.00,,BKN250,0.00,VWS V14.01,2013-02-15 00:54:00,
2013-02-14 20:00:00,39.9,32.3,30.16,SW,220,0.0,0.0,74,0.00,,BKN250,0.00,VWS V14.01,2013-02-15 01:00:00,
2013-02-14 20:06:00,39.8,32.2,30.16,SW,221,0.0,0.0,74,0.00,,BKN250,0.00,VWS V14.01,2013-02-15 01:06:00,
2013-02-14 20:12:00,39.5,32.2,30.16,SW,221,0.0,0.0,75,0.00,,BKN250,0.00,VWS V14.01,2013-02-15 01:12:00,
2013-02-14 20:18:00,39.5,32.6,30.16,SW,220,0.0,0.0,76,0.00,,BKN250,0.00,VWS V14.01,2013-02-15 01:18:00,
2013-02-14 20:24:00,39.2,32.6,30.16,SW,221,0.0,0.0,77,0.00,,BKN250,0.00,VWS V14.01,2013-02-15 01:24:00,
2013-02-14 20:30:00,39.1,32.8,30.16,SW,220,0.0,0.0,78,0.00,,BKN250,0.00,VWS V14.01,2013-02-15 01:30:00,
2013-02-14 20:36:00,38.8,32.9,30.17,SW,221,0.0,0.0,79,0.00,,BKN250,0.00,VWS V14.01,2013-02-15 01:36:00,
2013-02-14 20:43:00,38.6,32.7,30.17,SW,221,0.0,0.0,79,0.00,,BKN250,0.00,VWS V14.01,2013-02-15 01:43:00,
2013-02-14 20:49:00,38.6,32.7,30.18,SW,221,0.0,0.0,79,0.00,,BKN250,0.00,VWS V14.01,2013-02-15 01:49:00,
2013-02-14 20:54:00,38.8,32.9,30.18,SW,221,0.0,0.0,79,0.00,,BKN250,0.00,VWS V14.01,2013-02-15 01:54:00,
2013-02-14 20:59:00,38.8,33.2,30.18,SW,221,0.0,0.0,80,0.00,,BKN250,0.00,VWS V14.01,2013-02-15 01:59:00,
2013-02-14 21:05:00,38.8,33.2,30.17,SW,221,0.0,0.0,80,0.00,,SCT250,0.00,VWS V14.01,2013-02-15 02:05:00,
2013-02-14 21:11:00,38.9,33.3,30.17,SW,221,0.0,0.0,80,0.00,,SCT250,0.00,VWS V14.01,2013-02-15 02:11:00,
2013-02-14 21:17:00,38.9,33.3,30.17,SW,221,0.0,0.0,80,0.00,,SCT250,0.00,VWS V14.01,2013-02-15 02:17:00,
2013-02-14 21:23:00,38.8,33.2,30.17,SW,221,0.0,0.0,80,0.00,,SCT250,0.00,VWS V14.01,2013-02-15 02:23:00,
2013-02-14 21:29:00,38.5,32.9,30.17,SW,220,0.0,0.0,80,0.00,,SCT250,0.00,VWS V14.01,2013-02-15 02:29:00,
2013-02-14 21:35:00,38.2,32.9,30.17,SW,221,0.0,0.0,81,0.00,,SCT250,0.00,VWS V14.01,2013-02-15 02:35:00,
2013-02-14 21:41:00,38.0,32.7,30.17,SW,221,0.0,0.0,81,0.00,,SCT250,0.00,VWS V14.01,2013-02-15 02:41:00,
2013-02-14 21:47:00,37.8,32.8,30.17,SW,221,0.0,0.0,82,0.00,,SCT250,0.00,VWS V14.01,2013-02-15 02:47:00,
2013-02-14 21:53:00,37.8,32.8,30.19,SW,220,0.0,0.0,82,0.00,,SCT250,0.00,VWS V14.01,2013-02-15 02:53:00,
2013-02-14 21:59:00,37.8,32.8,30.19,SW,220,0.0,0.0,82,0.00,,SCT250,0.00,VWS V14.01,2013-02-15 02:59:00,
2013-02-14 22:06:00,37.6,32.9,30.20,SW,221,0.0,0.0,83,0.00,,SCT250,0.00,VWS V14.01,2013-02-15 03:06:00,
2013-02-14 22:12:00,37.6,32.9,30.20,SW,220,0.0,0.0,83,0.00,,SCT250,0.00,VWS V14.01,2013-02-15 03:12:00,
2013-02-14 22:18:00,37.5,32.8,30.20,SW,220,0.0,0.0,83,0.00,,SCT250,0.00,VWS V14.01,2013-02-15 03:18:00,
2013-02-14 22:24:00,37.5,32.8,30.19,SW,221,0.0,0.0,83,0.00,,SCT250,0.00,VWS V14.01,2013-02-15 03:24:00,
2013-02-14 22:30:00,37.3,32.6,30.19,SW,220,0.0,0.0,83,0.00,,SCT250,0.00,VWS V14.01,2013-02-15 03:30:00,
2013-02-14 22:36:00,37.2,32.8,30.19,SW,221,0.0,0.0,84,0.00,,SCT250,0.00,VWS V14.01,2013-02-15 03:36:00,
2013-02-14 22:42:00,36.9,32.5,30.19,SW,221,0.0,0.0,84,0.00,,SCT250,0.00,VWS V14.01,2013-02-15 03:42:00,
2013-02-14 22:48:00,36.8,32.7,30.19,SW,221,0.0,0.0,85,0.00,,SCT250,0.00,VWS V14.01,2013-02-15 03:48:00,
2013-02-14 22:54:00,36.6,32.5,30.19,SW,221,0.0,0.0,85,0.00,,SCT250,0.00,VWS V14.01,2013-02-15 03:54:00,
2013-02-14 23:00:00,36.6,32.5,30.19,SW,221,0.0,0.0,85,0.00,,SCT250,0.00,VWS V14.01,2013-02-15 04:00:00,
2013-02-14 23:06:00,36.5,32.7,30.18,SW,220,0.0,0.0,86,0.00,,FEW250,0.00,VWS V14.01,2013-02-15 04:06:00,
2013-02-14 23:12:00,36.3,32.5,30.18,SW,221,0.0,0.0,86,0.00,,FEW250,0.00,VWS V14.01,2013-02-15 04:12:00,
2013-02-14 23:18:00,36.3,32.5,30.18,SW,220,0.0,0.0,86,0.00,,FEW250,0.00,VWS V14.01,2013-02-15 04:18:00,
2013-02-14 23:24:00,36.0,32.2,30.18,SW,220,0.0,0.0,86,0.00,,FEW250,0.00,VWS V14.01,2013-02-15 04:24:00,
2013-02-14 23:30:00,35.9,32.4,30.18,SW,221,0.0,0.0,87,0.00,,FEW250,0.00,VWS V14.01,2013-02-15 04:30:00,
2013-02-14 23:36:00,35.8,32.3,30.17,SW,221,0.0,0.0,87,0.00,,FEW250,0.00,VWS V14.01,2013-02-15 04:36:00,
2013-02-14 23:42:00,35.8,32.3,30.17,SW,221,0.0,0.0,87,0.00,,FEW250,0.00,VWS V14.01,2013-02-15 04:42:00,
2013-02-14 23:48:00,35.6,32.1,30.17,SW,220,0.0,0.0,87,0.00,,FEW250,0.00,VWS V14.01,2013-02-15 04:48:00,
2013-02-14 23:54:00,35.5,32.0,30.17,SW,220,0.0,0.0,87,0.00,,FEW250,0.00,VWS V14.01,2013-02-15 04:54:00,